KEDC

Austin Executive Airport

Austin, Texas, USA
METAR KEDC 230915Z AUTO 00000KT 7SM -RA SCT008 BKN027 OVC034 13/12 A3017 RMK AO2
Observed Flight Rules
Oct-23 @ 09:15 UTC (25 minutes ago) Marginal Visual Flight Rules
Visibility Clouds Conditions
7 miles
  • Scattered at 800' AGL
  • Broken at 2,700' AGL
  • Overcast at 3,400' AGL
  • Light Rain
Temperatures Readings
Current 13°C / 55°F
Dewpoint 12°C / 54°F
Humidity 94%
Altimeter 30.17" Hg
Pressure 1022 hPa
Elevation 189
METAR KEDC 230915Z AUTO 00000KT 7SM -RA SCT008 BKN027 OVC034 13/12 A3017 RMK AO2
Observed Flight Rules
Oct-23 @ 09:15 UTC
(25 minutes ago)
MVFR
Clouds
  • Scattered at 800' AGL
  • Broken at 2,700' AGL
  • Overcast at 3,400' AGL
Conditions
  • Light Rain
Temperature Dewpoint
13°C / 55°F 12°C / 54°F
Humidity Altimeter Pressure
94% 30.17" Hg 1022 hPa